createdAt,value
2022-10-15T00:00:44.770Z,6.09
2022-10-15T00:03:14.819Z,6.08
2022-10-15T00:05:44.676Z,6.07
2022-10-15T00:08:14.868Z,6.07
2022-10-15T00:10:44.664Z,6.05
2022-10-15T00:13:14.249Z,6.04
2022-10-15T00:15:44.053Z,6.01
2022-10-15T00:18:13.555Z,5.87
2022-10-15T00:20:43.624Z,5.93
2022-10-15T00:23:13.146Z,5.88
2022-10-15T00:25:42.926Z,5.87
2022-10-15T00:28:12.736Z,5.88
2022-10-15T00:30:42.702Z,5.82
2022-10-15T00:33:12.496Z,5.87
2022-10-15T00:35:42.301Z,5.78
2022-10-15T00:38:12.166Z,5.80
2022-10-15T00:40:42.776Z,5.77
2022-10-15T00:43:13.236Z,5.67
2022-10-15T00:45:43.369Z,5.71
2022-10-15T00:48:13.382Z,5.67
2022-10-15T00:50:43.634Z,5.64
2022-10-15T00:53:13.403Z,5.61
2022-10-15T00:55:44.861Z,5.48
2022-10-15T00:58:17.719Z,5.48
2022-10-15T01:00:47.640Z,5.42
2022-10-15T01:03:17.998Z,5.45
2022-10-15T01:05:51.109Z,5.55
2022-10-15T01:08:20.984Z,5.75
2022-10-15T01:11:08.342Z,5.58
2022-10-15T01:13:41.189Z,5.52
2022-10-15T01:16:31.331Z,5.51
2022-10-15T01:19:14.189Z,5.48
2022-10-15T01:22:01.920Z,5.52
2022-10-15T01:24:46.347Z,5.43
2022-10-15T01:27:18.864Z,5.30
2022-10-15T01:30:00.815Z,5.43
2022-10-15T01:32:32.865Z,5.36
2022-10-15T01:35:08.456Z,5.32
2022-10-15T01:37:41.962Z,5.34
2022-10-15T01:40:36.690Z,5.34
2022-10-15T01:43:09.890Z,5.35
2022-10-15T01:45:50.271Z,5.60
2022-10-15T01:48:25.866Z,5.51
2022-10-15T01:51:00.821Z,5.47
2022-10-15T01:53:33.787Z,5.72
2022-10-15T01:56:09.843Z,5.53
2022-10-15T01:58:43.082Z,5.71
2022-10-15T02:01:12.884Z,5.56
2022-10-15T02:03:51.787Z,5.58
2022-10-15T02:06:32.568Z,5.58
2022-10-15T02:09:34.973Z,6.09
2022-10-15T02:12:10.435Z,6.29
2022-10-15T02:14:44.077Z,6.41
2022-10-15T02:17:15.970Z,6.51
2022-10-15T02:19:56.388Z,7.15
2022-10-15T02:22:29.237Z,7.53
2022-10-15T02:25:01.818Z,7.83
2022-10-15T02:27:34.259Z,8.13
2022-10-15T02:30:07.546Z,8.25
2022-10-15T02:32:40.638Z,8.52
2022-10-15T02:35:12.273Z,8.33
2022-10-15T02:37:46.981Z,8.33
2022-10-15T02:40:18.624Z,8.26
2022-10-15T02:42:51.250Z,8.26
2022-10-15T02:45:22.266Z,8.45
2022-10-15T02:47:52.150Z,8.52
2022-10-15T02:50:21.600Z,8.34
2022-10-15T02:52:51.397Z,8.43
2022-10-15T02:55:20.913Z,8.52
2022-10-15T02:57:50.976Z,8.53
2022-10-15T03:00:20.481Z,8.67
2022-10-15T03:02:51.241Z,8.56
2022-10-15T03:05:21.451Z,8.69
2022-10-15T03:07:51.594Z,8.78
2022-10-15T03:10:21.811Z,9.00
2022-10-15T03:12:51.685Z,9.00
2022-10-15T03:15:21.806Z,9.07
2022-10-15T03:17:52.263Z,9.03
2022-10-15T03:20:22.195Z,9.09
2022-10-15T03:22:52.288Z,9.19
2022-10-15T03:25:21.836Z,9.19
2022-10-15T03:27:53.362Z,9.20
2022-10-15T03:30:24.745Z,9.32
2022-10-15T03:32:54.548Z,9.52
2022-10-15T03:35:24.015Z,9.52
2022-10-15T03:37:53.782Z,9.46
2022-10-15T03:40:24.152Z,9.56
2022-10-15T03:42:56.500Z,9.57
2022-10-15T03:45:27.110Z,9.69
2022-10-15T03:48:15.596Z,9.70
2022-10-15T03:50:47.507Z,9.66
2022-10-15T03:53:17.249Z,9.65
2022-10-15T03:55:47.391Z,9.77
2022-10-15T03:58:17.602Z,9.69
2022-10-15T04:00:49.255Z,9.83
2022-10-15T04:03:19.107Z,9.70
2022-10-15T04:05:57.679Z,9.99
2022-10-15T04:08:30.461Z,9.99
2022-10-15T04:11:00.872Z,9.91
2022-10-15T04:13:31.497Z,10.09
2022-10-15T04:16:01.570Z,10.06
2022-10-15T04:18:31.715Z,10.19
2022-10-15T04:21:02.713Z,10.21
2022-10-15T04:23:34.237Z,10.19
2022-10-15T04:26:20.743Z,10.14
2022-10-15T04:28:50.666Z,10.11
2022-10-15T04:31:20.938Z,10.07
2022-10-15T04:33:51.577Z,10.01
2022-10-15T04:36:21.309Z,10.04
2022-10-15T04:39:01.847Z,10.15
2022-10-15T04:41:42.424Z,10.26
2022-10-15T04:44:16.882Z,10.39
2022-10-15T04:46:48.393Z,10.10
2022-10-15T04:49:19.984Z,10.09
2022-10-15T04:51:50.121Z,10.04
2022-10-15T04:54:21.749Z,10.13
2022-10-15T04:57:07.117Z,10.25
2022-10-15T04:59:37.543Z,10.09
2022-10-15T05:02:09.177Z,10.19
2022-10-15T05:04:39.201Z,10.33
2022-10-15T05:07:09.179Z,10.36
2022-10-15T05:09:43.998Z,10.38
2022-10-15T05:12:11.182Z,10.50
2022-10-15T05:14:41.984Z,10.45
2022-10-15T05:17:13.208Z,10.37
2022-10-15T05:19:43.638Z,10.27
2022-10-15T05:22:15.128Z,10.33
2022-10-15T05:24:46.637Z,10.31
2022-10-15T05:27:33.243Z,10.28
2022-10-15T05:30:04.483Z,10.23
2022-10-15T05:32:41.818Z,10.28
2022-10-15T05:35:13.041Z,10.17
2022-10-15T05:37:47.571Z,10.25
2022-10-15T05:40:21.091Z,10.17
2022-10-15T05:45:23.619Z,10.43
2022-10-15T05:47:59.311Z,10.24
2022-10-15T05:50:29.114Z,10.18
2022-10-15T05:52:59.118Z,10.38
2022-10-15T05:55:42.642Z,10.37
2022-10-15T05:58:12.449Z,10.32
2022-10-15T06:00:42.621Z,10.55
2022-10-15T06:03:15.203Z,10.42
2022-10-15T06:05:45.050Z,10.42
2022-10-15T06:08:15.013Z,10.33
2022-10-15T06:10:44.763Z,10.33
2022-10-15T06:13:15.563Z,10.37
2022-10-15T06:15:46.906Z,10.32
2022-10-15T06:18:16.708Z,10.38
2022-10-15T06:20:48.370Z,10.35
2022-10-15T06:23:18.180Z,10.42
2022-10-15T06:25:48.071Z,10.40
2022-10-15T06:28:17.979Z,10.61
2022-10-15T06:30:48.089Z,10.64
2022-10-15T06:33:17.608Z,10.58
2022-10-15T06:35:47.426Z,10.56
2022-10-15T06:38:16.940Z,10.56
2022-10-15T06:40:46.791Z,10.57
2022-10-15T06:43:16.447Z,10.66
2022-10-15T06:45:46.235Z,10.69
2022-10-15T06:48:21.809Z,10.69
2022-10-15T06:50:51.605Z,10.78
2022-10-15T06:53:22.444Z,10.77
2022-10-15T06:55:52.389Z,10.87
2022-10-15T06:58:22.225Z,11.06
2022-10-15T07:00:52.030Z,11.13
2022-10-15T07:03:21.515Z,11.13
2022-10-15T07:05:51.336Z,11.38
2022-10-15T07:08:21.150Z,11.73
2022-10-15T07:10:50.952Z,11.74
2022-10-15T07:13:22.477Z,11.90
2022-10-15T07:15:53.978Z,11.91
2022-10-15T07:18:24.177Z,12.01
2022-10-15T07:20:53.993Z,12.09
2022-10-15T07:23:27.032Z,12.14
2022-10-15T07:25:56.040Z,12.06
2022-10-15T07:28:26.159Z,12.14
2022-10-15T07:30:56.567Z,12.13
2022-10-15T07:33:26.373Z,12.20
2022-10-15T07:36:06.897Z,12.27
2022-10-15T07:38:37.146Z,12.22
2022-10-15T07:41:08.442Z,12.32
2022-10-15T07:43:40.229Z,12.50
2022-10-15T07:46:10.194Z,12.50
2022-10-15T07:48:40.068Z,12.57
2022-10-15T07:51:11.101Z,12.57
2022-10-15T07:53:41.197Z,12.72
2022-10-15T07:56:13.220Z,12.72
2022-10-15T07:58:43.296Z,12.91
2022-10-15T08:01:13.097Z,12.88
2022-10-15T08:03:42.912Z,12.93
2022-10-15T08:06:12.564Z,13.11
2022-10-15T08:08:42.355Z,13.15
2022-10-15T08:11:14.410Z,13.15
2022-10-15T08:13:47.038Z,13.18
2022-10-15T08:16:19.426Z,13.27
2022-10-15T08:21:21.780Z,13.52
2022-10-15T08:23:52.161Z,13.45
2022-10-15T08:26:23.548Z,13.41
2022-10-15T08:28:53.370Z,13.37
2022-10-15T08:31:23.570Z,13.37
2022-10-15T08:33:59.647Z,13.48
2022-10-15T08:36:29.592Z,13.47
2022-10-15T08:38:59.566Z,13.40
2022-10-15T08:41:35.264Z,13.19
2022-10-15T08:44:08.127Z,13.29
2022-10-15T08:46:43.771Z,13.31
2022-10-15T08:49:19.425Z,13.25
2022-10-15T08:51:53.736Z,13.42
2022-10-15T08:54:23.726Z,13.40
2022-10-15T08:56:56.887Z,13.40
2022-10-15T08:59:36.694Z,13.40
2022-10-15T09:02:12.559Z,13.58
2022-10-15T09:05:01.073Z,13.58
2022-10-15T09:07:43.465Z,13.61
2022-10-15T09:10:32.721Z,13.66
2022-10-15T09:13:10.379Z,13.79
2022-10-15T09:15:42.816Z,13.79
2022-10-15T09:18:15.418Z,13.72
2022-10-15T09:20:45.833Z,13.89
2022-10-15T09:23:24.398Z,14.05
2022-10-15T09:26:00.232Z,14.06
2022-10-15T09:28:33.154Z,14.10
2022-10-15T09:31:03.397Z,14.08
2022-10-15T09:33:48.467Z,14.10
2022-10-15T09:36:34.249Z,14.35
2022-10-15T09:39:07.164Z,14.25
2022-10-15T09:41:53.708Z,14.35
2022-10-15T09:44:25.734Z,14.30
2022-10-15T09:46:55.570Z,14.60
2022-10-15T09:49:33.837Z,14.60
2022-10-15T09:52:18.872Z,14.69
2022-10-15T09:55:11.136Z,14.93
2022-10-15T09:57:41.657Z,14.86
2022-10-15T10:00:13.672Z,14.97
2022-10-15T10:02:42.975Z,14.93
2022-10-15T10:05:20.576Z,14.91
2022-10-15T10:07:50.164Z,14.60
2022-10-15T10:10:28.256Z,14.75
2022-10-15T10:12:59.079Z,14.68
2022-10-15T10:15:38.717Z,14.84
2022-10-15T10:18:11.597Z,14.74
2022-10-15T10:20:44.441Z,14.74
2022-10-15T10:23:28.325Z,14.84
2022-10-15T10:26:00.229Z,14.57
2022-10-15T10:28:49.753Z,14.62
2022-10-15T10:31:21.616Z,14.74
2022-10-15T10:33:52.442Z,14.65
2022-10-15T10:36:31.598Z,14.77
2022-10-15T10:39:05.708Z,14.85
2022-10-15T10:42:04.663Z,14.74
2022-10-15T10:44:44.167Z,14.80
2022-10-15T10:47:25.823Z,14.83
2022-10-15T10:50:00.480Z,15.05
2022-10-15T10:52:33.209Z,14.93
2022-10-15T10:55:09.092Z,15.17
2022-10-15T10:57:50.841Z,15.03
2022-10-15T11:00:40.135Z,15.44
2022-10-15T11:03:30.348Z,15.44
2022-10-15T11:06:14.850Z,15.56
2022-10-15T11:09:06.020Z,15.73
2022-10-15T11:11:55.463Z,15.86
2022-10-15T11:14:56.147Z,16.05
2022-10-15T11:17:31.519Z,15.85
2022-10-15T11:22:59.336Z,15.84
2022-10-15T11:25:46.919Z,15.98
2022-10-15T11:28:39.203Z,16.13
2022-10-15T11:31:55.363Z,16.04
2022-10-15T11:34:45.022Z,16.26
2022-10-15T11:37:32.547Z,16.37
2022-10-15T11:43:20.786Z,16.66
2022-10-15T11:45:56.445Z,17.04
2022-10-15T11:48:35.020Z,17.25
2022-10-15T11:51:19.803Z,17.19
2022-10-15T11:54:01.305Z,17.51
2022-10-15T11:56:36.499Z,17.67
2022-10-15T11:59:12.356Z,17.67
2022-10-15T12:01:58.230Z,17.42
2022-10-15T12:04:52.190Z,17.20
2022-10-15T12:07:33.503Z,17.12
2022-10-15T12:10:06.338Z,16.95
2022-10-15T12:12:54.224Z,17.53
2022-10-15T12:15:38.095Z,17.32
2022-10-15T12:18:23.120Z,17.34
2022-10-15T12:20:54.833Z,17.32
2022-10-15T12:23:27.908Z,17.47
2022-10-15T12:25:59.151Z,17.39
2022-10-15T12:28:32.915Z,17.34
2022-10-15T12:31:05.569Z,17.05
2022-10-15T12:33:41.689Z,17.30
2022-10-15T12:36:30.359Z,17.45
2022-10-15T12:39:17.631Z,17.32
2022-10-15T12:41:46.134Z,17.30
2022-10-15T12:44:31.278Z,17.30
2022-10-15T12:47:02.021Z,17.09
2022-10-15T12:49:34.590Z,16.94
2022-10-15T12:52:07.430Z,16.89
2022-10-15T12:54:44.452Z,17.02
2022-10-15T12:57:38.646Z,16.71
2022-10-15T13:00:41.482Z,16.74
2022-10-15T13:03:20.061Z,16.70
2022-10-15T13:05:53.910Z,16.79
2022-10-15T13:08:25.791Z,16.79
2022-10-15T13:11:00.299Z,16.68
2022-10-15T13:13:32.916Z,16.80
2022-10-15T13:16:06.891Z,16.55
2022-10-15T13:18:37.524Z,16.57
2022-10-15T13:21:09.905Z,16.54
2022-10-15T13:23:40.194Z,16.55
2022-10-15T13:26:19.146Z,16.66
2022-10-15T13:28:51.293Z,16.39
2022-10-15T13:31:27.697Z,16.62
2022-10-15T13:34:01.787Z,16.62
2022-10-15T13:36:33.980Z,16.67
2022-10-15T13:39:12.945Z,16.46
2022-10-15T13:41:42.757Z,16.58
2022-10-15T13:44:24.517Z,16.56
2022-10-15T13:46:54.299Z,16.20
2022-10-15T13:49:26.562Z,16.20
2022-10-15T13:51:55.172Z,16.38
2022-10-15T13:54:27.895Z,16.33
2022-10-15T13:57:01.786Z,16.31
2022-10-15T13:59:32.503Z,16.27
2022-10-15T14:02:05.038Z,16.44
2022-10-15T14:04:35.154Z,16.19
2022-10-15T14:07:27.677Z,16.16
2022-10-15T14:09:58.203Z,16.22
2022-10-15T14:12:28.024Z,16.25
2022-10-15T14:14:59.336Z,16.04
2022-10-15T14:17:29.881Z,16.16
2022-10-15T14:20:25.683Z,15.98
2022-10-15T14:22:36.081Z,16.20
2022-10-15T14:27:45.513Z,16.24
2022-10-15T14:30:18.092Z,16.00
2022-10-15T14:32:51.773Z,16.06
2022-10-15T14:35:33.467Z,15.92
2022-10-15T14:38:06.051Z,15.90
2022-10-15T14:40:35.567Z,15.90
2022-10-15T14:43:17.788Z,15.73
2022-10-15T14:45:59.909Z,15.73
2022-10-15T14:48:30.188Z,15.83
2022-10-15T14:51:01.212Z,15.84
2022-10-15T14:53:35.882Z,15.90
2022-10-15T14:56:10.147Z,15.77
2022-10-15T14:58:40.227Z,15.66
2022-10-15T15:01:11.654Z,15.54
2022-10-15T15:03:43.953Z,15.54
2022-10-15T15:06:14.594Z,15.65
2022-10-15T15:08:44.533Z,15.55
2022-10-15T15:11:17.890Z,15.76
2022-10-15T15:13:48.120Z,15.65
2022-10-15T15:16:19.559Z,15.52
2022-10-15T15:18:49.367Z,15.59
2022-10-15T15:21:22.002Z,15.29
2022-10-15T15:23:52.439Z,15.29
2022-10-15T15:26:24.621Z,15.33
2022-10-15T15:28:54.554Z,15.28
2022-10-15T15:31:24.597Z,15.54
2022-10-15T15:33:54.997Z,15.23
2022-10-15T15:36:24.518Z,15.45
2022-10-15T15:38:56.697Z,15.29
2022-10-15T15:41:26.587Z,15.10
2022-10-15T15:43:56.762Z,15.10
2022-10-15T15:46:26.653Z,15.04
2022-10-15T15:48:58.091Z,15.07
2022-10-15T15:51:30.519Z,15.00
2022-10-15T15:54:02.092Z,14.97
2022-10-15T15:56:32.498Z,14.97
2022-10-15T15:59:02.320Z,15.04
2022-10-15T16:01:32.202Z,15.17
2022-10-15T16:04:02.022Z,14.87
2022-10-15T16:06:31.904Z,14.98
2022-10-15T16:09:02.673Z,14.81
2022-10-15T16:11:33.589Z,14.89
2022-10-15T16:14:08.419Z,14.92
2022-10-15T16:16:36.617Z,14.87
2022-10-15T16:19:08.305Z,14.69
2022-10-15T16:21:38.272Z,14.89
2022-10-15T16:24:08.248Z,14.89
2022-10-15T16:26:38.059Z,14.69
2022-10-15T16:29:07.882Z,14.76
2022-10-15T16:31:37.740Z,14.61
2022-10-15T16:34:08.584Z,14.50
2022-10-15T16:36:38.433Z,14.87
2022-10-15T16:39:08.319Z,14.66
2022-10-15T16:41:38.433Z,14.58
2022-10-15T16:44:08.299Z,14.59
2022-10-15T16:46:38.104Z,14.73
2022-10-15T16:49:07.702Z,14.50
2022-10-15T16:51:39.930Z,14.54
2022-10-15T16:54:10.333Z,14.58
2022-10-15T16:56:40.790Z,14.65
2022-10-15T16:59:10.540Z,14.64
2022-10-15T17:01:40.600Z,14.65
2022-10-15T17:04:10.394Z,14.48
2022-10-15T17:06:40.509Z,14.48
2022-10-15T17:09:10.312Z,14.44
2022-10-15T17:11:42.719Z,14.80
2022-10-15T17:14:14.891Z,14.71
2022-10-15T17:16:48.982Z,14.52
2022-10-15T17:19:23.692Z,14.33
2022-10-15T17:21:55.510Z,14.33
2022-10-15T17:24:25.212Z,14.38
2022-10-15T17:26:57.038Z,14.52
2022-10-15T17:29:30.581Z,14.87
2022-10-15T17:31:58.434Z,14.62
2022-10-15T17:34:30.430Z,14.52
2022-10-15T17:37:00.232Z,14.66
2022-10-15T17:39:30.077Z,14.59
2022-10-15T17:41:59.961Z,14.50
2022-10-15T17:44:29.917Z,14.51
2022-10-15T17:46:59.796Z,14.75
2022-10-15T17:49:30.221Z,14.47
2022-10-15T17:51:59.927Z,14.62
2022-10-15T17:54:30.019Z,14.52
2022-10-15T17:56:59.872Z,14.26
2022-10-15T17:59:29.803Z,14.22
2022-10-15T18:02:00.960Z,14.49
2022-10-15T18:04:34.170Z,14.24
2022-10-15T18:07:04.021Z,14.16
2022-10-15T18:09:33.990Z,14.12
2022-10-15T18:12:05.252Z,14.01
2022-10-15T18:14:35.974Z,13.93
2022-10-15T18:17:07.019Z,13.85
2022-10-15T18:19:36.909Z,13.96
2022-10-15T18:22:06.799Z,13.86
2022-10-15T18:24:36.530Z,13.76
2022-10-15T18:27:07.040Z,13.68
2022-10-15T18:29:36.977Z,13.45
2022-10-15T18:32:06.999Z,13.44
2022-10-15T18:34:37.315Z,13.33
2022-10-15T18:37:07.478Z,13.22
2022-10-15T18:39:37.435Z,13.12
2022-10-15T18:42:07.236Z,13.06
2022-10-15T18:44:37.045Z,12.98
2022-10-15T18:47:07.990Z,12.99
2022-10-15T18:49:39.615Z,12.90
2022-10-15T18:52:21.537Z,12.72
2022-10-15T18:54:41.056Z,12.90
2022-10-15T18:57:10.858Z,12.64
2022-10-15T18:59:41.778Z,12.48
2022-10-15T19:02:11.983Z,12.38
2022-10-15T19:04:41.543Z,12.27
2022-10-15T19:07:11.124Z,12.27
2022-10-15T19:09:40.932Z,12.16
2022-10-15T19:12:10.522Z,12.16
2022-10-15T19:14:41.329Z,12.11
2022-10-15T19:17:10.959Z,11.99
2022-10-15T19:19:40.880Z,11.95
2022-10-15T19:22:10.690Z,11.89
2022-10-15T19:24:40.506Z,11.70
2022-10-15T19:29:41.258Z,11.57
2022-10-15T19:32:11.130Z,11.50
2022-10-15T19:34:40.968Z,11.37
2022-10-15T19:37:10.827Z,11.39
2022-10-15T19:39:43.974Z,11.29
2022-10-15T19:42:14.017Z,11.22
2022-10-15T19:44:43.934Z,11.14
2022-10-15T19:47:16.973Z,10.99
2022-10-15T19:49:46.454Z,11.03
2022-10-15T19:52:16.324Z,11.10
2022-10-15T19:54:47.883Z,10.89
2022-10-15T19:57:17.811Z,10.84
2022-10-15T19:59:47.659Z,10.77
2022-10-15T20:02:17.244Z,10.65
2022-10-15T20:04:47.029Z,10.56
2022-10-15T20:07:17.412Z,10.49
2022-10-15T20:09:47.431Z,10.40
2022-10-15T20:12:17.239Z,10.40
2022-10-15T20:14:47.030Z,10.36
2022-10-15T20:17:16.650Z,10.27
2022-10-15T20:19:46.446Z,10.27
2022-10-15T20:22:15.957Z,10.26
2022-10-15T20:24:45.798Z,10.19
2022-10-15T20:27:15.622Z,10.12
2022-10-15T20:29:45.407Z,10.06
2022-10-15T20:32:30.501Z,10.04
2022-10-15T20:34:48.001Z,10.04
2022-10-15T20:37:17.873Z,10.12
2022-10-15T20:39:48.624Z,10.08
2022-10-15T20:42:18.680Z,10.06
2022-10-15T20:44:48.470Z,10.03
2022-10-15T20:47:19.004Z,10.01
2022-10-15T20:49:51.618Z,9.98
2022-10-15T20:52:23.005Z,9.98
2022-10-15T20:54:55.719Z,10.08
2022-10-15T20:57:25.603Z,10.11
2022-10-15T20:59:55.379Z,10.09
2022-10-15T21:02:25.246Z,10.06
2022-10-15T21:04:55.055Z,10.08
2022-10-15T21:07:27.645Z,10.03
2022-10-15T21:09:58.717Z,10.03
2022-10-15T21:12:28.777Z,10.07
2022-10-15T21:14:58.753Z,10.09
2022-10-15T21:17:28.962Z,10.10
2022-10-15T21:19:59.052Z,10.02
2022-10-15T21:22:29.154Z,9.99
2022-10-15T21:24:59.003Z,10.02
2022-10-15T21:27:28.946Z,10.04
2022-10-15T21:29:59.182Z,10.01
2022-10-15T21:32:29.168Z,10.06
2022-10-15T21:34:58.914Z,10.06
2022-10-15T21:37:30.487Z,10.09
2022-10-15T21:40:00.338Z,10.15
2022-10-15T21:42:30.990Z,10.18
2022-10-15T21:45:00.497Z,10.22
2022-10-15T21:47:30.521Z,10.26
2022-10-15T21:50:00.435Z,10.33
2022-10-15T21:52:30.516Z,10.39
2022-10-15T21:55:00.332Z,10.55
2022-10-15T21:57:30.429Z,10.59
2022-10-15T22:00:00.404Z,10.57
2022-10-15T22:02:30.277Z,10.57
2022-10-15T22:05:00.103Z,10.73
2022-10-15T22:07:29.916Z,10.78
2022-10-15T22:09:59.724Z,10.76
2022-10-15T22:12:29.602Z,10.77
2022-10-15T22:14:59.498Z,10.80
2022-10-15T22:17:29.373Z,10.80
2022-10-15T22:19:59.170Z,10.81
2022-10-15T22:22:29.016Z,10.87
2022-10-15T22:24:59.658Z,10.88
2022-10-15T22:27:29.161Z,10.91
2022-10-15T22:29:59.658Z,10.96
2022-10-15T22:32:29.530Z,10.98
2022-10-15T22:34:59.646Z,10.99
2022-10-15T22:37:29.452Z,11.01
2022-10-15T22:39:59.258Z,11.03
2022-10-15T22:42:29.434Z,11.01
2022-10-15T22:44:59.278Z,11.03
2022-10-15T22:47:29.385Z,10.99
2022-10-15T22:49:59.271Z,10.96
2022-10-15T22:52:29.184Z,10.93
2022-10-15T22:54:59.016Z,10.87
2022-10-15T22:57:28.838Z,10.74
2022-10-15T22:59:59.490Z,10.74
2022-10-15T23:02:29.100Z,10.75
2022-10-15T23:04:58.947Z,10.66
2022-10-15T23:07:28.755Z,10.70
2022-10-15T23:09:58.548Z,10.67
2022-10-15T23:12:28.711Z,10.65
2022-10-15T23:14:58.393Z,10.61
2022-10-15T23:17:28.214Z,10.55
2022-10-15T23:19:58.220Z,10.46
2022-10-15T23:22:28.306Z,10.45
2022-10-15T23:24:58.168Z,10.37
2022-10-15T23:27:31.295Z,10.50
2022-10-15T23:30:14.350Z,10.50
2022-10-15T23:32:32.607Z,10.50
2022-10-15T23:35:02.409Z,10.46
2022-10-15T23:37:32.194Z,10.46
2022-10-15T23:40:02.009Z,10.39
2022-10-15T23:42:32.584Z,10.38
2022-10-15T23:45:02.097Z,10.42
2022-10-15T23:47:31.891Z,10.42
2022-10-15T23:50:01.706Z,10.39
2022-10-15T23:52:32.794Z,10.36
2022-10-15T23:55:02.651Z,10.28
2022-10-15T23:57:32.444Z,10.22
